»·PEaware :: N9273T KSBA-KPSP

N9273T :: KSBA-KPSP

FLIGHT INFORMATION

Flight Status: Arrived
Operator: Privately registered:
United States
More flights under this callsign
Pilot: Jim L. (28297)
Aircraft: CESSNA 210 CENTURION
(C210)
More flights by this aircraft type
Origin: KSBA Santa Barbara Mun
United States
Destination: KPSP Palm Springs Intl
United States
More flights between these airports :: More routes between these airports
Route: +FIM V186 ITSME V264 POM V197 PDZ V186 NIKKL V64 TRM PSP
File this flight plan on PilotEdge
Remarks: TEC route SBAP36
Altitude:
(Current/Filed)
11,000ft
Speed:
(Current/Filed)
140kts
Departed: 21-Aug-20 04:50 PM
Arrived: 21-Aug-20 06:22 PM
Distance/Time
Traveled:
170nm/1:32
Distance/Time
To Go:
Arrived

Flight Plot

Page will automatically refresh every two minutes.


Map Options




Map Legend


Flown Route
Filed Route
Departure Airport
Arrival Airport
Navaid (VOR, NDB)
Fix

Horizontal Profiles

Position Reports

Time Latitude Longitude Heading Altitude Ground
Speed
21-Aug-20 16:30 34.432569 -119.835087 71 17ft 0kts
21-Aug-20 16:31 34.432571 -119.835077 72 17ft 1kts
21-Aug-20 16:32 34.432574 -119.835069 72 17ft 0kts
21-Aug-20 16:33 34.432574 -119.835069 72 17ft 0kts
21-Aug-20 16:34 34.432574 -119.835069 72 17ft 0kts
21-Aug-20 16:35 34.432574 -119.835069 72 17ft 0kts
21-Aug-20 16:36 34.432574 -119.835069 72 17ft 0kts
21-Aug-20 16:37 34.432574 -119.835069 72 17ft 0kts
21-Aug-20 16:38 34.432574 -119.835069 72 17ft 0kts
21-Aug-20 16:39 34.432574 -119.835069 72 17ft 0kts
21-Aug-20 16:40 34.432574 -119.835069 72 17ft 0kts
21-Aug-20 16:41 34.432574 -119.835069 72 17ft 0kts
21-Aug-20 16:42 34.432574 -119.835069 72 17ft 0kts
21-Aug-20 16:44 34.432574 -119.835069 72 17ft 0kts
21-Aug-20 16:45 34.431878 -119.835751 244 17ft 11kts
21-Aug-20 16:46 34.430741 -119.839645 248 17ft 0kts
21-Aug-20 16:47 34.430741 -119.839645 248 17ft 0kts
21-Aug-20 16:48 34.430741 -119.839645 248 17ft 0kts
21-Aug-20 16:49 34.430709 -119.839744 247 17ft 6kts
21-Aug-20 16:50 34.415591 -119.836194 162 394ft 91kts
21-Aug-20 16:51 34.389869 -119.828920 166 1836ft 100kts
21-Aug-20 16:52 34.365174 -119.807951 97 2890ft 128kts
21-Aug-20 16:53 34.365068 -119.764851 89 3976ft 126kts
21-Aug-20 16:54 34.364965 -119.722594 88 5074ft 125kts
21-Aug-20 16:55 34.364713 -119.680393 87 6177ft 125kts
21-Aug-20 16:56 34.364428 -119.638419 87 7277ft 125kts
21-Aug-20 16:57 34.364146 -119.596477 88 8381ft 124kts
21-Aug-20 16:58 34.363838 -119.554799 88 9441ft 125kts
21-Aug-20 16:59 34.363529 -119.512133 90 10446ft 128kts
21-Aug-20 17:00 34.363118 -119.465621 91 11003ft 160kts
21-Aug-20 17:01 34.362552 -119.409629 91 10990ft 166kts
21-Aug-20 17:01 34.362124 -119.362763 91 10992ft 169kts
21-Aug-20 17:03 34.361507 -119.296145 91 10999ft 170kts
21-Aug-20 17:03 34.361022 -119.248106 91 10999ft 170kts
21-Aug-20 17:04 34.360488 -119.190474 91 10999ft 170kts
21-Aug-20 17:06 34.359783 -119.123356 91 10999ft 170kts
21-Aug-20 17:06 34.359238 -119.075585 91 10999ft 170kts
21-Aug-20 17:07 34.358574 -119.018130 91 11002ft 170kts
21-Aug-20 17:08 34.357872 -118.960921 91 11013ft 169kts
21-Aug-20 17:09 34.357162 -118.903959 91 11025ft 169kts
21-Aug-20 17:10 34.345376 -118.850010 111 11017ft 167kts
21-Aug-20 17:11 34.328282 -118.797522 112 11026ft 166kts
21-Aug-20 17:12 34.310708 -118.745591 112 11028ft 166kts
21-Aug-20 17:13 34.293053 -118.693875 112 11027ft 166kts
21-Aug-20 17:14 34.275324 -118.642092 112 11027ft 166kts
21-Aug-20 17:15 34.257624 -118.590439 112 11027ft 166kts
21-Aug-20 17:16 34.239885 -118.538828 112 11027ft 165kts
21-Aug-20 17:17 34.222286 -118.487618 111 11023ft 165kts
21-Aug-20 17:18 34.206510 -118.435540 108 11018ft 165kts
21-Aug-20 17:19 34.190793 -118.383216 108 11014ft 165kts
21-Aug-20 17:20 34.174949 -118.330954 109 11009ft 165kts
21-Aug-20 17:21 34.159097 -118.278815 109 11019ft 165kts
21-Aug-20 17:22 34.143290 -118.226895 109 11101ft 166kts
21-Aug-20 17:23 34.127288 -118.174439 109 11101ft 167kts
21-Aug-20 17:24 34.111153 -118.121710 109 11109ft 166kts
21-Aug-20 17:25 34.095058 -118.069226 109 11110ft 167kts
21-Aug-20 17:26 34.078946 -118.016749 109 11109ft 167kts
21-Aug-20 17:27 34.075517 -117.961713 87 11110ft 166kts
21-Aug-20 17:28 34.076719 -117.906042 87 11110ft 166kts
21-Aug-20 17:29 34.077649 -117.850393 88 11109ft 166kts
21-Aug-20 17:30 34.078316 -117.794502 93 11107ft 166kts
21-Aug-20 17:31 34.053815 -117.747711 124 11110ft 168kts
21-Aug-20 17:32 34.026034 -117.702350 125 11110ft 168kts
21-Aug-20 17:33 33.998012 -117.657223 125 11110ft 168kts
21-Aug-20 17:34 33.969997 -117.612260 125 11109ft 167kts
21-Aug-20 17:35 33.942174 -117.567669 125 11109ft 166kts
21-Aug-20 17:36 33.912548 -117.524987 145 11108ft 168kts
21-Aug-20 17:37 33.874089 -117.492765 142 11109ft 168kts
21-Aug-20 17:38 33.835914 -117.460506 143 11109ft 167kts
21-Aug-20 17:39 33.801631 -117.431790 143 11109ft 167kts
21-Aug-20 17:40 33.763433 -117.399811 143 11109ft 167kts
21-Aug-20 17:41 33.730437 -117.362494 102 11111ft 163kts
21-Aug-20 17:42 33.725504 -117.308178 93 11110ft 163kts
21-Aug-20 17:43 33.721456 -117.253544 94 11109ft 163kts
21-Aug-20 17:44 33.717057 -117.198726 94 11109ft 163kts
21-Aug-20 17:45 33.712630 -117.144382 94 11109ft 163kts
21-Aug-20 17:46 33.708149 -117.089922 94 11109ft 163kts
21-Aug-20 17:47 33.703631 -117.035529 94 11109ft 163kts
21-Aug-20 17:48 33.702453 -116.981402 67 11110ft 162kts
21-Aug-20 17:49 33.722409 -116.935602 61 11878ft 147kts
21-Aug-20 17:50 33.741297 -116.893010 61 12867ft 143kts
21-Aug-20 17:51 33.762004 -116.846656 61 13114ft 174kts
21-Aug-20 17:52 33.785732 -116.793452 61 13109ft 183kts
21-Aug-20 17:53 33.814337 -116.743678 44 13174ft 184kts
21-Aug-20 17:54 33.850138 -116.701078 46 13170ft 174kts
21-Aug-20 17:55 33.883141 -116.660129 46 13172ft 169kts
21-Aug-20 17:56 33.917157 -116.617662 46 12617ft 185kts
21-Aug-20 17:57 33.908923 -116.569488 154 11798ft 194kts
21-Aug-20 17:58 33.867023 -116.532374 110 11165ft 180kts
21-Aug-20 17:59 33.881131 -116.479286 83 11169ft 165kts
21-Aug-20 18:00 33.860650 -116.432783 131 11173ft 164kts
21-Aug-20 18:01 33.839233 -116.385412 94 11174ft 163kts
21-Aug-20 18:02 33.852193 -116.334059 60 11173ft 163kts
21-Aug-20 18:03 33.881663 -116.292775 32 11174ft 165kts
21-Aug-20 18:04 33.926740 -116.282116 355 10992ft 177kts
21-Aug-20 18:05 33.973974 -116.304318 338 10104ft 181kts
21-Aug-20 18:06 34.021240 -116.324688 338 9210ft 181kts
21-Aug-20 18:07 34.064589 -116.352891 315 8319ft 177kts
21-Aug-20 18:08 34.101820 -116.391620 314 7475ft 175kts
21-Aug-20 18:09 34.128026 -116.438253 278 6661ft 164kts
21-Aug-20 18:10 34.113254 -116.481918 215 5851ft 149kts
21-Aug-20 18:11 34.090310 -116.523117 232 5130ft 151kts
21-Aug-20 18:12 34.055847 -116.551087 210 4573ft 147kts
21-Aug-20 18:13 34.021524 -116.576008 208 4491ft 146kts
21-Aug-20 18:14 33.981303 -116.587793 182 3862ft 127kts
21-Aug-20 18:15 33.950063 -116.587039 182 3119ft 106kts
21-Aug-20 18:16 33.924356 -116.579639 163 2939ft 92kts
21-Aug-20 18:17 33.900528 -116.567429 163 2470ft 97kts
21-Aug-20 18:18 33.878659 -116.551720 143 1603ft 87kts
21-Aug-20 18:19 33.860839 -116.535873 140 1180ft 77kts
21-Aug-20 18:20 33.843174 -116.519711 141 711ft 74kts
21-Aug-20 18:21 33.829196 -116.507219 141 481ft 31kts
21-Aug-20 18:22 33.825495 -116.502732 114 481ft 0kts
21-Aug-20 18:23 33.825495 -116.502732 114 481ft 0kts
21-Aug-20 18:24 33.824395 -116.500002 54 481ft 14kts
21-Aug-20 18:25 33.823251 -116.497542 52 481ft 0kts

Navigation Log

Ident Type
Flight plan parsing failed, navigation log unavailable